Metar Cercanos

 

LEPA - Palma De Mallorc, Spain
Distance from station: ONO 38km
Actualización: 13/12/2017 06:00
Few Clouds
Few Clouds
 Viento del varies
Viento: varies 2 km/h
Temperatura: 4°C
Rocío: 3°C
Humedad: 93%
Barómetro: 1024 hPa
Clouds: Few Clouds
Visibility: 10 km
Cloud details: Few Clouds 701 m
2017/12/13 05:00 LEPA 130500Z VRB01KT 9999 FEW023 04/03 Q1024 NOSIG
LEMH - Mahon/Menorca Is, Spain
Distance from station: ENE 105km
Actualización: 13/12/2017 06:00
Despejado
Despejado
 Viento del N
Viento: N 13 km/h
Temperatura: 4°C
Sensación frio: 1°C
Rocío: 1°C
Humedad: 81%
Barómetro: 1023 hPa
Resumen: Despejado
Visibility: greater than 10 km
2017/12/13 05:00 LEMH 130500Z 35007KT CAVOK 04/01 Q1023
 
LEIB - Ibiza/Es Codola, Spain
Distance from station: OSO 165km
Actualización: 13/12/2017 00:00
NOT Current
Despejado
Despejado
 Viento del varies
Viento: varies 2 km/h
Temperatura: 6°C
Rocío: 2°C
Humedad: 76%
Barómetro: 1022 hPa
Resumen: Despejado
Visibility: greater than 10 km
2017/12/12 23:00 LEIB 122300Z VRB01KT CAVOK 06/02 Q1022 NOSIG
LEBL - Barcelona Airpor, Spain
Distance from station: NNO 225km
Actualización: 13/12/2017 06:00
Despejado
Despejado
 Viento del NNO
Viento: NNO 24 km/h
Temperatura: 3°C
Sensación frio: -2°C
Rocío: 0°C
Humedad: 81%
Barómetro: 1023 hPa
Resumen: Despejado
Visibility: greater than 10 km
2017/12/13 05:00 LEBL 130500Z 33013KT CAVOK 03/M00 Q1023 NOSIG
 
LEVC - Valencia (civ/Mi, Spain
Distance from station: NO 188km
Actualización: 13/12/2017 06:00
Despejado
Despejado
 Viento del O
Viento: O 7 km/h
Temperatura: 2°C
Sensación frio: 0°C
Rocío: -2°C
Humedad: 75%
Barómetro: 1025 hPa
Resumen: Despejado
Visibility: greater than 10 km
2017/12/13 05:00 LEVC 130500Z 28004KT CAVOK 02/M02 Q1025 NOSIG
LEGE - Gerona/Costa Bra, Spain
Distance from station: N 276km
Actualización: 13/12/2017 06:00
Despejado
Despejado
 Viento del varies
Viento: varies 2 km/h
Temperatura: -3°C
Rocío: -3°C
Humedad: 100%
Barómetro: 1022 hPa
Resumen: Despejado
Visibility: greater than 10 km
2017/12/13 05:00 LEGE 130500Z VRB01KT CAVOK M03/M03 Q1022
 
LEAL - Alicante/El Alte, Spain
Distance from station: OSO 344km
Actualización: 13/12/2017 06:00
Despejado
Despejado
 Viento del OSO
Viento: OSO 9 km/h
Temperatura: 6°C
Sensación frio: 4°C
Rocío: -1°C
Humedad: 61%
Barómetro: 1025 hPa
Resumen: Despejado
Visibility: greater than 10 km
2017/12/13 05:00 LEAL 130500Z 24005KT CAVOK 06/M01 Q1025 NOSIG
LEAM - Almeria Airport, Spain
Distance from station: SSO 56km
Actualización: 13/12/2017 06:00
Despejado
Despejado
 Viento del NNO
Viento: NNO 28 km/h
Temperatura: 7°C
Sensación frio: 3°C
Rocío: -2°C
Humedad: 53%
Barómetro: 1026 hPa
Resumen: Despejado
Visibility: greater than 10 km
2017/12/13 05:00 LEAM 130500Z 33015KT CAVOK 07/M02 Q1026
 
LEZG - Zaragoza (mil/Ci, Spain
Distance from station: NO 431km
Actualización: 13/12/2017 06:00
Despejado
Despejado
 Viento del ENE
Viento: ENE 9 km/h
Temperatura: 1°C
Sensación frio: -2°C
Rocío: -1°C
Humedad: 87%
Barómetro: 1024 hPa
Resumen: Despejado
Visibility: greater than 10 km
2017/12/13 05:00 LEZG 130500Z 07005KT CAVOK 01/M01 Q1024
LEMD - Madrid/Barajas, Spain
Distance from station: ONO 234km
Actualización: 13/12/2017 06:00
Despejado
Despejado
 Viento del N
Viento: N 6 km/h
Temperatura: -2°C
Rocío: -3°C
Humedad: 93%
Barómetro: 1026 hPa
Resumen: Despejado
Visibility: greater than 10 km
2017/12/13 05:00 LEMD 130500Z 36003KT CAVOK M02/M03 Q1026 NOSIG
 
LEGR - Granada Airport, Spain
Distance from station: OSO 62km
Actualización: 13/12/2017 06:00
Despejado
Despejado
 Viento del SO
Viento: SO 6 km/h
Temperatura: -2°C
Rocío: -3°C
Humedad: 93%
Barómetro: 1026 hPa
Resumen: Despejado
Visibility: greater than 10 km
2017/12/13 05:00 LEGR 130500Z 22003KT CAVOK M02/M03 Q1026
LEMG - Malaga (civ/Mil), Spain
Distance from station: OSO 227km
Actualización: 13/12/2017 06:00
Despejado
Despejado
 Viento del ONO
Viento: ONO 20 km/h
Temperatura: 5°C
Sensación frio: 1°C
Rocío: 1°C
Humedad: 76%
Barómetro: 1026 hPa
Resumen: Despejado
Visibility: greater than 10 km
2017/12/13 05:00 LEMG 130500Z 30011KT CAVOK 05/01 Q1026 NOSIG
 
LEZL - Sevilla (civ/Mil, Spain
Distance from station: S 318km
Actualización: 13/12/2017 06:00
Despejado
Despejado
 Viento del NE
Viento: NE 6 km/h
Temperatura: 5°C
Rocío: 3°C
Humedad: 87%
Barómetro: 1027 hPa
Resumen: Despejado
Visibility: greater than 10 km
2017/12/13 05:00 LEZL 130500Z 04003KT CAVOK 05/03 Q1027 NOSIG
LEVT - Vitoria, Spain
Distance from station: NO 226km
Actualización: 13/12/2017 06:00
Muy nuboso
Muy nuboso
 Viento del SO
Viento: SO 19 km/h
Temperatura: 4°C
Sensación frio: 0°C
Rocío: 1°C
Humedad: 81%
Barómetro: 1021 hPa
Clouds: Muy nuboso
Visibility: 10 km
Cloud details: Parcialmente nuboso 1372 m
Muy nuboso 2134 m
2017/12/13 05:00 LEVT 130500Z 23010KT 9999 SCT045 BKN070 04/01 Q1021
 
LEBB - Bilbao/Sondica, Spain
Distance from station: NNO 235km
Actualización: 13/12/2017 06:00
Muy nuboso
Muy nuboso
 Viento del S
Viento: S 7 km/h, Racha: 26 km/h
Temperatura: 9°C
Sensación frio: 8°C
Rocío: 4°C
Humedad: 71%
Barómetro: 1020 hPa
Clouds: Muy nuboso
Visibility: 10 km
Cloud details: Parcialmente nuboso 914 m
Muy nuboso 1158 m
2017/12/13 05:00 LEBB 130500Z 17004G14KT 100V250 9999 SCT030 BKN038 09/04 Q1020 NOSIG
LESO - San Sebastian/Fu, Spain
Distance from station: N 231km
Actualización: 13/12/2017 06:00
Few Clouds
Few Clouds
 Viento del varies
Viento: varies 4 km/h
Temperatura: 7°C
Rocío: 3°C
Humedad: 76%
Barómetro: 1020 hPa
Clouds: Few Clouds
Visibility: 10 km
Cloud details: Few Clouds 2073 m
2017/12/13 05:00 LESO 130500Z VRB02KT 9999 FEW068 07/03 Q1020
 
LEVD - Valladolid(Mil/C, Spain
Distance from station: ONO 239km
Actualización: 12/12/2017 21:30
NOT Current
Despejado
Despejado
 Viento del SSO
Viento: SSO 7 km/h
Temperatura: 2°C
Sensación frio: 0°C
Rocío: -1°C
Humedad: 81%
Barómetro: 1021 hPa
Resumen: Despejado
Visibility: greater than 10 km
2017/12/12 20:30 LEVD 122030Z 21004KT CAVOK 02/M01 Q1021
LESA - Salamanca (civ/M, Spain
Distance from station: ONO 349km
Actualización: 13/12/2017 00:30
NOT Current
Despejado
Despejado
 Viento del varies
Viento: varies 2 km/h
Temperatura: -1°C
Rocío: -2°C
Humedad: 93%
Barómetro: 1024 hPa
Resumen: Despejado
Visibility: greater than 10 km
2017/12/12 23:30 LESA 122330Z VRB01KT CAVOK M01/M02 Q1024
 
LEXJ - Santander/Paraya, Spain
Distance from station: NNO 247km
Actualización: 13/12/2017 06:00
Muy nuboso
Muy nuboso
 Viento del SO
Viento: SO 15 km/h
Temperatura: 10°C
Sensación frio: 8°C
Rocío: 5°C
Humedad: 71%
Barómetro: 1019 hPa
Clouds: Muy nuboso
Visibility: 10 km
Cloud details: Muy nuboso 975 m
Muy nuboso 1372 m
2017/12/13 05:00 LEXJ 130500Z 23008KT 9999 BKN032 BKN045 10/05 Q1019
LEAS - Asturias/Aviles, Spain
Distance from station: NO 214km
Actualización: 13/12/2017 06:00
Few Clouds
Few Clouds
 Viento del ONO
Viento: ONO 15 km/h
Temperatura: 11°C
Rocío: 7°C
Humedad: 77%
Barómetro: 1019 hPa
Clouds: Few Clouds
Visibility: 10 km
Cloud details: Few Clouds 914 m
2017/12/13 05:00 LEAS 130500Z 30008KT 270V340 9999 FEW030 11/07 Q1019 NOSIG
 
LECO - La Coruna/Alvedr, Spain
Distance from station: ONO 222km
Actualización: 13/12/2017 06:00
Muy nuboso
Muy nuboso
 Viento del SSO
Viento: SSO 17 km/h
Temperatura: 11°C
Rocío: 9°C
Humedad: 88%
Barómetro: 1021 hPa
Clouds: Muy nuboso
Visibility: 10 km
Cloud details: Few Clouds 610 m
Parcialmente nuboso 823 m
Muy nuboso 1219 m
2017/12/13 05:00 LECO 130500Z 20009KT 170V230 9999 FEW020 SCT027 BKN040 11/09 Q1021 NOSIG
LEVX - Vigo/Peinador, Spain
Distance from station: O 214km
Actualización: 13/12/2017 06:00
Niebla, Drizzle, Cubierto
Niebla, Drizzle, Cubierto
 Viento del S
Viento: S 17 km/h
Temperatura: 8°C
Sensación frio: 5°C
Rocío: 8°C
Humedad: 100%
Barómetro: 1023 hPa
Resumen: Niebla, Drizzle
Clouds: Cubierto
Visibility: 0 km
Cloud details: Cubierto 30 m
2017/12/13 05:00 LEVX 130500Z 19009KT 150V240 0250 R19/1900N R01/0400N FG DZ VV001 08/08 Q1023 TEMPO 1500 BCFG